createdAt,value
2017-10-22T00:00:55.234Z,12.40
2017-10-22T00:03:22.125Z,12.40
2017-10-22T00:05:49.344Z,12.20
2017-10-22T00:08:16.245Z,12.20
2017-10-22T00:10:43.136Z,12.10
2017-10-22T00:13:10.946Z,12.00
2017-10-22T00:15:38.807Z,12.00
2017-10-22T00:18:05.714Z,11.90
2017-10-22T00:20:32.603Z,11.90
2017-10-22T00:22:59.510Z,11.90
2017-10-22T00:25:26.394Z,11.80
2017-10-22T00:27:54.070Z,11.80
2017-10-22T00:30:20.957Z,11.80
2017-10-22T00:32:47.874Z,11.70
2017-10-22T00:35:14.781Z,11.70
2017-10-22T00:37:41.706Z,11.70
2017-10-22T00:40:08.617Z,11.70
2017-10-22T00:42:36.430Z,11.60
2017-10-22T00:45:03.333Z,11.60
2017-10-22T00:47:31.049Z,11.50
2017-10-22T00:49:58.721Z,11.50
2017-10-22T00:52:26.385Z,11.50
2017-10-22T00:54:54.056Z,11.40
2017-10-22T00:57:20.948Z,11.40
2017-10-22T00:59:47.865Z,11.40
2017-10-22T01:02:14.777Z,11.40
2017-10-22T01:04:42.446Z,11.30
2017-10-22T01:07:09.338Z,11.30
2017-10-22T01:09:36.477Z,11.30
2017-10-22T01:12:03.366Z,11.20
2017-10-22T01:14:31.038Z,11.20
2017-10-22T01:16:57.935Z,11.20
2017-10-22T01:19:25.335Z,11.20
2017-10-22T01:21:52.986Z,11.20
2017-10-22T01:24:20.645Z,11.20
2017-10-22T01:26:48.305Z,11.20
2017-10-22T01:29:15.975Z,11.10
2017-10-22T01:31:43.645Z,11.10
2017-10-22T01:34:11.321Z,11.10
2017-10-22T01:36:38.214Z,11.10
2017-10-22T01:39:05.109Z,11.10
2017-10-22T01:41:32.576Z,11.00
2017-10-22T01:44:00.350Z,11.00
2017-10-22T01:46:28.131Z,11.00
2017-10-22T01:48:55.024Z,11.00
2017-10-22T01:51:23.690Z,11.00
2017-10-22T01:53:50.593Z,11.00
2017-10-22T01:56:18.275Z,10.90
2017-10-22T01:58:46.140Z,10.90
2017-10-22T02:01:13.058Z,10.80
2017-10-22T02:03:39.948Z,10.80
2017-10-22T02:06:06.883Z,10.90
2017-10-22T02:08:34.566Z,10.80
2017-10-22T02:11:01.509Z,10.70
2017-10-22T02:13:29.030Z,10.70
2017-10-22T02:15:56.744Z,10.70
2017-10-22T02:18:25.181Z,10.70
2017-10-22T02:20:52.914Z,10.70
2017-10-22T02:23:19.809Z,10.70
2017-10-22T02:25:46.750Z,10.70
2017-10-22T02:28:13.728Z,10.60
2017-10-22T02:30:40.637Z,10.60
2017-10-22T02:33:07.531Z,10.60
2017-10-22T02:35:34.460Z,10.50
2017-10-22T02:38:01.369Z,10.60
2017-10-22T02:40:28.364Z,10.40
2017-10-22T02:42:55.280Z,10.40
2017-10-22T02:45:24.067Z,10.40
2017-10-22T02:47:51.716Z,10.40
2017-10-22T02:50:19.386Z,10.40
2017-10-22T02:52:46.293Z,10.40
2017-10-22T02:55:13.186Z,10.40
2017-10-22T02:57:40.106Z,10.40
2017-10-22T03:00:07.764Z,10.30
2017-10-22T03:02:34.680Z,10.30
2017-10-22T03:05:02.338Z,10.30
2017-10-22T03:07:29.241Z,10.30
2017-10-22T03:09:56.142Z,10.20
2017-10-22T03:12:23.054Z,10.20
2017-10-22T03:14:49.974Z,10.20
2017-10-22T03:17:17.774Z,10.20
2017-10-22T03:19:44.699Z,10.20
2017-10-22T03:22:11.614Z,10.20
2017-10-22T03:24:39.295Z,10.20
2017-10-22T03:27:06.224Z,10.20
2017-10-22T03:29:33.877Z,10.20
2017-10-22T03:32:01.553Z,10.10
2017-10-22T03:34:28.440Z,10.10
2017-10-22T03:36:56.438Z,10.10
2017-10-22T03:39:23.432Z,10.10
2017-10-22T03:41:50.313Z,10.10
2017-10-22T03:44:17.229Z,10.10
2017-10-22T03:46:44.128Z,10.10
2017-10-22T03:49:11.805Z,10.10
2017-10-22T03:51:38.734Z,10.00
2017-10-22T03:54:05.646Z,10.00
2017-10-22T03:56:32.546Z,10.00
2017-10-22T03:58:59.461Z,10.00
2017-10-22T04:01:28.261Z,10.00
2017-10-22T04:03:55.925Z,10.00
2017-10-22T04:06:22.814Z,10.00
2017-10-22T04:08:49.721Z,10.00
2017-10-22T04:11:16.610Z,10.00
2017-10-22T04:13:43.518Z,10.00
2017-10-22T04:16:10.437Z,9.90
2017-10-22T04:18:38.123Z,9.90
2017-10-22T04:21:05.067Z,9.90
2017-10-22T04:23:32.900Z,9.90
2017-10-22T04:26:01.377Z,9.90
2017-10-22T04:28:28.281Z,9.90
2017-10-22T04:30:55.261Z,9.80
2017-10-22T04:33:22.144Z,9.90
2017-10-22T04:35:49.055Z,9.80
2017-10-22T04:38:15.973Z,9.80
2017-10-22T04:40:42.856Z,9.80
2017-10-22T04:43:10.495Z,9.80
2017-10-22T04:45:37.403Z,9.80
2017-10-22T04:48:05.237Z,9.80
2017-10-22T04:50:33.133Z,9.70
2017-10-22T04:53:00.795Z,9.60
2017-10-22T04:55:28.473Z,9.60
2017-10-22T04:57:55.378Z,9.60
2017-10-22T05:00:22.270Z,9.60
2017-10-22T05:02:49.158Z,9.50
2017-10-22T05:05:16.801Z,9.60
2017-10-22T05:07:45.629Z,9.50
2017-10-22T05:10:12.698Z,9.50
2017-10-22T05:12:40.361Z,9.60
2017-10-22T05:15:07.261Z,9.50
2017-10-22T05:17:34.581Z,9.50
2017-10-22T05:20:02.415Z,9.50
2017-10-22T05:22:31.002Z,9.50
2017-10-22T05:24:58.669Z,9.40
2017-10-22T05:27:25.563Z,9.40
2017-10-22T05:29:52.469Z,9.40
2017-10-22T05:32:19.354Z,9.40
2017-10-22T05:34:47.247Z,9.40
2017-10-22T05:37:14.898Z,9.40
2017-10-22T05:39:41.798Z,9.30
2017-10-22T05:42:09.405Z,9.30
2017-10-22T05:44:37.984Z,9.30
2017-10-22T05:47:04.921Z,9.30
2017-10-22T05:49:31.831Z,9.30
2017-10-22T05:51:59.379Z,9.30
2017-10-22T05:54:26.861Z,9.30
2017-10-22T05:56:54.708Z,9.30
2017-10-22T05:59:21.609Z,9.30
2017-10-22T06:01:48.534Z,9.20
2017-10-22T06:04:15.450Z,9.20
2017-10-22T06:06:42.326Z,9.30
2017-10-22T06:09:09.394Z,9.20
2017-10-22T06:11:37.029Z,9.20
2017-10-22T06:14:03.950Z,9.30
2017-10-22T06:16:30.904Z,9.30
2017-10-22T06:18:58.624Z,9.30
2017-10-22T06:21:26.277Z,9.20
2017-10-22T06:23:55.689Z,9.20
2017-10-22T06:26:24.257Z,9.30
2017-10-22T06:28:53.149Z,9.30
2017-10-22T06:34:08.170Z,9.20
2017-10-22T06:36:35.341Z,9.20
2017-10-22T06:39:02.237Z,9.20
2017-10-22T06:41:29.123Z,9.20
2017-10-22T06:43:56.021Z,9.30
2017-10-22T06:46:23.821Z,9.40
2017-10-22T06:48:51.642Z,9.40
2017-10-22T06:51:18.549Z,9.40
2017-10-22T06:53:45.476Z,9.40
2017-10-22T06:56:12.363Z,9.50
2017-10-22T06:58:40.164Z,9.50
2017-10-22T07:01:07.062Z,9.60
2017-10-22T07:03:33.957Z,9.70
2017-10-22T07:06:00.847Z,9.80
2017-10-22T07:08:28.386Z,9.80
2017-10-22T07:10:56.054Z,9.90
2017-10-22T07:13:22.945Z,9.90
2017-10-22T07:15:49.846Z,10.00
2017-10-22T07:18:16.758Z,10.10
2017-10-22T07:20:44.464Z,10.10
2017-10-22T07:23:11.366Z,10.20
2017-10-22T07:25:38.260Z,10.30
2017-10-22T07:28:06.090Z,10.30
2017-10-22T07:30:33.002Z,10.40
2017-10-22T07:33:00.146Z,10.50
2017-10-22T07:35:27.041Z,10.60
2017-10-22T07:37:53.934Z,10.70
2017-10-22T07:40:21.539Z,10.60
2017-10-22T07:42:48.462Z,10.70
2017-10-22T07:45:16.075Z,10.80
2017-10-22T07:47:43.728Z,10.90
2017-10-22T07:50:11.568Z,10.90
2017-10-22T07:52:38.468Z,11.00
2017-10-22T07:55:05.473Z,11.00
2017-10-22T07:57:33.161Z,11.10
2017-10-22T08:00:01.852Z,11.30
2017-10-22T08:02:30.173Z,11.30
2017-10-22T08:04:57.093Z,11.30
2017-10-22T08:07:23.991Z,11.40
2017-10-22T08:09:50.886Z,11.40
2017-10-22T08:12:17.801Z,11.50
2017-10-22T08:14:46.690Z,11.50
2017-10-22T08:17:14.346Z,11.50
2017-10-22T08:19:42.017Z,11.60
2017-10-22T08:22:11.409Z,11.60
2017-10-22T08:24:39.895Z,11.80
2017-10-22T08:27:06.786Z,11.80
2017-10-22T08:29:35.609Z,12.00
2017-10-22T08:32:02.497Z,12.10
2017-10-22T08:34:29.418Z,12.10
2017-10-22T08:36:57.127Z,12.10
2017-10-22T08:39:24.021Z,12.10
2017-10-22T08:41:53.613Z,12.20
2017-10-22T08:44:22.409Z,12.20
2017-10-22T08:46:50.077Z,12.20
2017-10-22T08:49:17.753Z,12.20
2017-10-22T08:51:44.645Z,12.10
2017-10-22T08:54:12.540Z,12.40
2017-10-22T08:56:40.207Z,12.80
2017-10-22T08:59:07.126Z,12.80
2017-10-22T09:01:34.832Z,12.90
2017-10-22T09:04:01.741Z,12.90
2017-10-22T09:06:29.605Z,13.00
2017-10-22T09:08:57.462Z,13.20
2017-10-22T09:11:24.362Z,13.40
2017-10-22T09:13:51.262Z,13.40
2017-10-22T09:16:18.162Z,13.20
2017-10-22T09:18:45.066Z,13.00
2017-10-22T09:21:12.748Z,13.00
2017-10-22T09:23:39.651Z,13.00
2017-10-22T09:26:07.335Z,13.00
2017-10-22T09:28:34.994Z,13.30
2017-10-22T09:31:02.668Z,13.50
2017-10-22T09:33:30.347Z,13.70
2017-10-22T09:35:57.242Z,13.70
2017-10-22T09:38:27.489Z,13.50
2017-10-22T09:40:54.394Z,13.70
2017-10-22T09:43:22.190Z,13.70
2017-10-22T09:45:50.056Z,13.80
2017-10-22T09:48:17.715Z,13.60
2017-10-22T09:50:44.597Z,13.60
2017-10-22T09:53:11.515Z,13.40
2017-10-22T09:55:39.194Z,13.30
2017-10-22T09:58:07.163Z,13.30
2017-10-22T10:00:34.085Z,13.50
2017-10-22T10:03:01.754Z,13.30
2017-10-22T10:05:29.408Z,13.30
2017-10-22T10:07:56.310Z,13.20
2017-10-22T10:10:23.210Z,13.30
2017-10-22T10:12:50.104Z,13.30
2017-10-22T10:15:17.985Z,13.30
2017-10-22T10:17:44.890Z,13.30
2017-10-22T10:20:11.770Z,13.20
2017-10-22T10:22:38.669Z,13.20
2017-10-22T10:25:05.554Z,13.40
2017-10-22T10:27:32.451Z,13.30
2017-10-22T10:29:59.333Z,13.30
2017-10-22T10:32:26.269Z,13.20
2017-10-22T10:34:53.166Z,13.10
2017-10-22T10:37:21.001Z,12.90
2017-10-22T10:39:52.657Z,12.70
2017-10-22T10:42:19.541Z,12.70
2017-10-22T10:44:46.454Z,12.70
2017-10-22T10:47:16.041Z,12.80
2017-10-22T10:49:43.775Z,12.90
2017-10-22T10:52:11.679Z,12.90
2017-10-22T10:54:38.598Z,13.00
2017-10-22T10:57:06.482Z,12.90
2017-10-22T10:59:33.387Z,12.80
2017-10-22T11:02:02.214Z,12.80
2017-10-22T11:04:29.146Z,12.90
2017-10-22T11:06:57.037Z,12.80
2017-10-22T11:09:23.944Z,12.50
2017-10-22T11:11:50.835Z,12.50
2017-10-22T11:14:18.685Z,12.30
2017-10-22T11:16:45.579Z,12.30
2017-10-22T11:19:12.492Z,12.30
2017-10-22T11:21:40.174Z,12.20
2017-10-22T11:24:07.089Z,12.20
2017-10-22T11:26:33.973Z,12.30
2017-10-22T11:29:00.870Z,12.40
2017-10-22T11:31:27.771Z,12.40
2017-10-22T11:33:55.681Z,12.50
2017-10-22T11:36:25.801Z,12.50
2017-10-22T11:38:52.721Z,12.60
2017-10-22T11:41:20.604Z,12.80
2017-10-22T11:43:48.466Z,12.90
2017-10-22T11:46:16.152Z,13.10
2017-10-22T11:48:43.832Z,13.20
2017-10-22T11:51:11.657Z,13.10
2017-10-22T11:53:38.562Z,13.40
2017-10-22T11:56:05.453Z,13.30
2017-10-22T11:58:33.138Z,13.00
2017-10-22T12:01:00.831Z,12.80
2017-10-22T12:03:27.714Z,12.80
2017-10-22T12:05:55.373Z,13.00
2017-10-22T12:08:22.270Z,13.00
2017-10-22T12:10:49.193Z,12.90
2017-10-22T12:13:17.757Z,12.50
2017-10-22T12:15:45.649Z,12.50
2017-10-22T12:18:13.515Z,12.60
2017-10-22T12:20:40.423Z,12.50
2017-10-22T12:23:07.301Z,12.80
2017-10-22T12:25:34.415Z,12.90
2017-10-22T12:28:01.321Z,13.00
2017-10-22T12:30:28.222Z,12.90
2017-10-22T12:32:56.582Z,12.70
2017-10-22T12:35:23.477Z,12.30
2017-10-22T12:37:51.295Z,11.70
2017-10-22T12:40:19.961Z,11.70
2017-10-22T12:42:46.872Z,11.70
2017-10-22T12:45:15.392Z,12.00
2017-10-22T12:47:42.303Z,12.20
2017-10-22T12:50:09.211Z,12.50
2017-10-22T12:52:38.082Z,12.60
2017-10-22T12:55:04.978Z,12.90
2017-10-22T12:57:31.875Z,13.20
2017-10-22T12:59:58.774Z,13.00
2017-10-22T13:02:25.697Z,12.90
2017-10-22T13:04:52.617Z,13.00
2017-10-22T13:07:19.711Z,12.90
2017-10-22T13:09:46.612Z,12.90
2017-10-22T13:12:14.279Z,12.70
2017-10-22T13:14:41.663Z,12.70
2017-10-22T13:17:08.578Z,12.80
2017-10-22T13:19:36.234Z,12.50
2017-10-22T13:22:03.923Z,12.40
2017-10-22T13:24:31.738Z,12.40
2017-10-22T13:26:58.668Z,12.40
2017-10-22T13:29:26.558Z,12.40
2017-10-22T13:31:53.602Z,12.30
2017-10-22T13:34:20.494Z,12.30
2017-10-22T13:36:48.400Z,12.30
2017-10-22T13:39:16.084Z,12.50
2017-10-22T13:41:43.743Z,12.60
2017-10-22T13:44:10.658Z,12.70
2017-10-22T13:46:37.554Z,12.80
2017-10-22T13:49:05.376Z,12.60
2017-10-22T13:51:32.284Z,12.50
2017-10-22T13:54:00.226Z,12.30
2017-10-22T13:56:27.891Z,12.10
2017-10-22T13:58:54.802Z,12.10
2017-10-22T14:01:21.695Z,12.10
2017-10-22T14:03:48.613Z,12.10
2017-10-22T14:06:16.268Z,11.90
2017-10-22T14:08:43.921Z,11.60
2017-10-22T14:11:11.593Z,11.70
2017-10-22T14:13:39.277Z,11.60
2017-10-22T14:16:06.186Z,11.50
2017-10-22T14:18:33.833Z,11.50
2017-10-22T14:21:01.526Z,11.60
2017-10-22T14:23:29.626Z,11.50
2017-10-22T14:25:56.544Z,11.50
2017-10-22T14:28:23.457Z,11.60
2017-10-22T14:30:50.394Z,11.70
2017-10-22T14:33:17.301Z,11.80
2017-10-22T14:35:44.245Z,11.80
2017-10-22T14:38:12.056Z,11.90
2017-10-22T14:40:38.968Z,11.90
2017-10-22T14:43:05.876Z,11.90
2017-10-22T14:45:33.561Z,12.00
2017-10-22T14:48:00.459Z,12.00
2017-10-22T14:50:27.365Z,12.10
2017-10-22T14:52:54.265Z,12.00
2017-10-22T14:55:21.987Z,12.00
2017-10-22T14:57:48.894Z,11.90
2017-10-22T15:00:15.818Z,11.90
2017-10-22T15:02:43.479Z,11.70
2017-10-22T15:05:15.044Z,11.70
2017-10-22T15:07:41.938Z,11.60
2017-10-22T15:10:11.530Z,11.50
2017-10-22T15:12:38.416Z,11.50
2017-10-22T15:15:07.081Z,11.30
2017-10-22T15:17:33.985Z,11.30
2017-10-22T15:20:02.875Z,11.30
2017-10-22T15:22:30.795Z,11.30
2017-10-22T15:24:57.715Z,11.10
2017-10-22T15:27:24.641Z,11.20
2017-10-22T15:29:51.554Z,11.20
2017-10-22T15:32:18.459Z,11.10
2017-10-22T15:34:47.303Z,11.20
2017-10-22T15:37:14.594Z,11.30
2017-10-22T15:39:42.482Z,11.20
2017-10-22T15:42:13.706Z,11.40
2017-10-22T15:44:41.617Z,11.40
2017-10-22T15:47:08.546Z,11.30
2017-10-22T15:49:36.282Z,11.20
2017-10-22T15:52:03.180Z,11.20
2017-10-22T15:54:30.094Z,11.20
2017-10-22T15:56:57.773Z,11.30
2017-10-22T15:59:24.747Z,11.20
2017-10-22T16:01:53.590Z,11.20
2017-10-22T16:04:21.078Z,11.30
2017-10-22T16:06:48.930Z,11.30
2017-10-22T16:09:16.815Z,11.30
2017-10-22T16:11:47.216Z,11.30
2017-10-22T16:14:14.934Z,11.20
2017-10-22T16:16:41.853Z,11.30
2017-10-22T16:19:09.691Z,11.20
2017-10-22T16:21:38.545Z,11.30
2017-10-22T16:24:05.490Z,11.30
2017-10-22T16:26:35.966Z,11.40
2017-10-22T16:29:03.839Z,11.30
2017-10-22T16:31:30.781Z,11.20
2017-10-22T16:33:57.812Z,11.30
2017-10-22T16:36:26.815Z,11.30
2017-10-22T16:38:54.654Z,11.20
2017-10-22T16:41:22.329Z,11.30
2017-10-22T16:43:49.262Z,11.30
2017-10-22T16:46:16.156Z,11.30
2017-10-22T16:48:43.106Z,11.30
2017-10-22T16:51:10.010Z,11.20
2017-10-22T16:53:37.829Z,11.10
2017-10-22T16:56:04.777Z,11.00
2017-10-22T16:58:32.477Z,11.10
2017-10-22T17:01:01.145Z,11.10
2017-10-22T17:03:28.817Z,11.10
2017-10-22T17:05:56.681Z,11.00
2017-10-22T17:08:24.348Z,11.20
2017-10-22T17:11:04.053Z,11.20
2017-10-22T17:13:30.978Z,11.20
2017-10-22T17:15:57.880Z,11.40
2017-10-22T17:18:26.295Z,11.40
2017-10-22T17:20:56.122Z,11.30
2017-10-22T17:23:23.014Z,11.30
2017-10-22T17:25:52.610Z,11.30
2017-10-22T17:28:21.230Z,11.30
2017-10-22T17:30:49.742Z,11.30
2017-10-22T17:33:16.660Z,11.20
2017-10-22T17:35:43.553Z,11.20
2017-10-22T17:38:10.486Z,11.20
2017-10-22T17:40:39.430Z,11.20
2017-10-22T17:43:06.389Z,11.20
2017-10-22T17:45:33.306Z,11.20
2017-10-22T17:48:00.237Z,11.30
2017-10-22T17:50:27.954Z,11.30
2017-10-22T17:52:54.895Z,11.30
2017-10-22T17:55:22.785Z,11.20
2017-10-22T17:57:49.786Z,11.10
2017-10-22T18:00:16.737Z,11.20
2017-10-22T18:02:44.553Z,11.30
2017-10-22T18:05:14.740Z,11.20
2017-10-22T18:07:41.921Z,11.30
2017-10-22T18:10:09.626Z,11.30
2017-10-22T18:12:36.517Z,11.30
2017-10-22T18:15:03.466Z,11.20
2017-10-22T18:17:30.386Z,11.20
2017-10-22T18:19:59.253Z,11.20
2017-10-22T18:22:28.820Z,11.20
2017-10-22T18:24:57.401Z,11.10
2017-10-22T18:27:25.282Z,11.00
2017-10-22T18:29:54.879Z,10.90
2017-10-22T18:32:23.484Z,10.80
2017-10-22T18:34:52.365Z,10.80
2017-10-22T18:37:20.027Z,10.80
2017-10-22T18:39:50.858Z,10.80
2017-10-22T18:42:18.509Z,10.90
2017-10-22T18:44:46.185Z,11.00
2017-10-22T18:47:13.137Z,10.90
2017-10-22T18:49:40.073Z,11.00
2017-10-22T18:52:09.683Z,11.00
2017-10-22T18:54:38.718Z,11.00
2017-10-22T18:57:05.638Z,11.10
2017-10-22T18:59:33.482Z,11.10
2017-10-22T19:02:02.102Z,10.90
2017-10-22T19:04:33.532Z,11.00
2017-10-22T19:07:04.171Z,10.90
2017-10-22T19:09:31.085Z,10.90
2017-10-22T19:11:58.022Z,10.90
2017-10-22T19:14:30.625Z,10.90
2017-10-22T19:16:57.595Z,10.80
2017-10-22T19:19:26.154Z,11.30
2017-10-22T19:21:53.050Z,10.80
2017-10-22T19:24:19.965Z,10.80
2017-10-22T19:26:46.980Z,10.80
2017-10-22T19:29:13.929Z,10.80
2017-10-22T19:31:41.818Z,10.80
2017-10-22T19:34:08.748Z,10.80
2017-10-22T19:36:35.662Z,10.80
2017-10-22T19:39:03.388Z,10.70
2017-10-22T19:41:30.584Z,10.70
2017-10-22T19:43:58.637Z,10.50
2017-10-22T19:46:28.678Z,10.40
2017-10-22T19:48:56.429Z,10.40
2017-10-22T19:51:24.111Z,10.40
2017-10-22T19:53:51.147Z,10.30
2017-10-22T19:56:18.878Z,10.20
2017-10-22T19:58:45.829Z,10.20
2017-10-22T20:01:13.523Z,10.20
2017-10-22T20:03:43.165Z,10.00
2017-10-22T20:06:10.114Z,10.00
2017-10-22T20:08:38.033Z,10.00
2017-10-22T20:11:07.737Z,10.00
2017-10-22T20:13:36.186Z,9.90
2017-10-22T20:16:03.090Z,9.90
2017-10-22T20:18:30.009Z,9.90
2017-10-22T20:20:57.702Z,9.90
2017-10-22T20:23:24.636Z,9.80
2017-10-22T20:25:51.886Z,9.80
2017-10-22T20:28:20.569Z,9.90
2017-10-22T20:30:47.523Z,9.80
2017-10-22T20:33:14.490Z,9.90
2017-10-22T20:35:41.392Z,9.90
2017-10-22T20:38:09.070Z,10.00
2017-10-22T20:40:35.959Z,9.90
2017-10-22T20:43:02.938Z,10.00
2017-10-22T20:45:30.634Z,10.20
2017-10-22T20:47:57.554Z,10.20
2017-10-22T20:50:25.244Z,10.20
2017-10-22T20:52:52.654Z,10.20
2017-10-22T20:55:19.570Z,10.20
2017-10-22T20:57:47.245Z,10.20
2017-10-22T21:00:14.958Z,10.30
2017-10-22T21:02:41.878Z,10.20
2017-10-22T21:05:10.563Z,10.30
2017-10-22T21:07:38.227Z,10.30
2017-10-22T21:10:05.917Z,10.30
2017-10-22T21:12:33.763Z,10.30
2017-10-22T21:15:01.445Z,10.20
2017-10-22T21:17:29.278Z,10.20
2017-10-22T21:19:56.953Z,10.10
2017-10-22T21:22:25.545Z,10.10
2017-10-22T21:24:52.434Z,9.80
2017-10-22T21:27:19.372Z,10.10
2017-10-22T21:29:46.278Z,10.10
2017-10-22T21:32:13.267Z,10.10
2017-10-22T21:34:40.213Z,10.10
2017-10-22T21:37:07.110Z,10.00
2017-10-22T21:39:35.843Z,10.10
2017-10-22T21:42:03.740Z,10.10
2017-10-22T21:44:31.410Z,10.00
2017-10-22T21:46:59.817Z,10.00
2017-10-22T21:49:26.785Z,10.00
2017-10-22T21:51:53.706Z,10.00
2017-10-22T21:54:20.610Z,10.00
2017-10-22T21:56:47.527Z,10.00
2017-10-22T21:59:14.451Z,10.10
2017-10-22T22:01:41.351Z,10.10
2017-10-22T22:04:09.934Z,10.10
2017-10-22T22:06:38.625Z,10.00
2017-10-22T22:09:06.297Z,10.10
2017-10-22T22:11:33.970Z,10.10
2017-10-22T22:14:00.898Z,10.10
2017-10-22T22:16:27.842Z,10.10
2017-10-22T22:18:54.751Z,10.10
2017-10-22T22:21:23.409Z,10.10
2017-10-22T22:23:50.310Z,10.10
2017-10-22T22:26:17.977Z,10.10
2017-10-22T22:28:45.831Z,10.10
2017-10-22T22:31:12.789Z,10.00
2017-10-22T22:33:40.472Z,10.00
2017-10-22T22:36:07.925Z,9.50
2017-10-22T22:38:36.772Z,10.00
2017-10-22T22:41:03.700Z,10.00
2017-10-22T22:43:30.613Z,10.00
2017-10-22T22:45:57.510Z,10.00
2017-10-22T22:48:25.178Z,10.00
2017-10-22T22:50:52.839Z,10.00
2017-10-22T22:53:20.527Z,10.00
2017-10-22T22:55:47.417Z,10.00
2017-10-22T22:58:15.836Z,10.00
2017-10-22T23:01:13.601Z,10.00
2017-10-22T23:03:41.297Z,10.00
2017-10-22T23:06:08.220Z,10.00
2017-10-22T23:08:35.135Z,10.00
2017-10-22T23:11:02.025Z,10.00
2017-10-22T23:13:28.951Z,10.10
2017-10-22T23:15:55.851Z,10.10
2017-10-22T23:18:22.753Z,10.10
2017-10-22T23:20:49.653Z,10.10
2017-10-22T23:23:16.562Z,10.10
2017-10-22T23:25:43.451Z,10.20
2017-10-22T23:28:11.109Z,10.20
2017-10-22T23:30:39.774Z,10.20
2017-10-22T23:33:06.690Z,10.20
2017-10-22T23:35:33.589Z,10.20
2017-10-22T23:38:01.972Z,10.20
2017-10-22T23:40:28.876Z,10.20
2017-10-22T23:42:55.779Z,10.20
2017-10-22T23:45:22.671Z,10.20
2017-10-22T23:47:49.588Z,10.20
2017-10-22T23:50:17.248Z,10.10
2017-10-22T23:52:44.157Z,10.00
2017-10-22T23:55:11.913Z,10.00
2017-10-22T23:57:39.593Z,10.00
